sensor_id;sensor_type;location;lat;lon;timestamp;P1;durP1;ratioP1;P2;durP2;ratioP2
45762;SDS011;37512;52.408;13.356;2024-03-22T00:01:55;19.80;;;12.18;;
45762;SDS011;37512;52.408;13.356;2024-03-22T00:05:56;16.60;;;11.18;;
45762;SDS011;37512;52.408;13.356;2024-03-22T00:09:57;18.40;;;13.13;;
45762;SDS011;37512;52.408;13.356;2024-03-22T00:13:57;19.23;;;11.57;;
45762;SDS011;37512;52.408;13.356;2024-03-22T00:17:58;19.25;;;11.40;;
45762;SDS011;37512;52.408;13.356;2024-03-22T00:21:59;20.10;;;11.65;;
45762;SDS011;37512;52.408;13.356;2024-03-22T00:25:59;16.58;;;10.35;;
45762;SDS011;37512;52.408;13.356;2024-03-22T00:30:00;19.73;;;12.30;;
45762;SDS011;37512;52.408;13.356;2024-03-22T00:34:01;18.35;;;11.10;;
45762;SDS011;37512;52.408;13.356;2024-03-22T00:38:02;20.98;;;11.93;;
45762;SDS011;37512;52.408;13.356;2024-03-22T00:42:03;16.95;;;11.68;;
45762;SDS011;37512;52.408;13.356;2024-03-22T00:46:03;20.48;;;12.18;;
45762;SDS011;37512;52.408;13.356;2024-03-22T00:50:04;18.95;;;11.75;;
45762;SDS011;37512;52.408;13.356;2024-03-22T00:54:05;24.30;;;12.82;;
45762;SDS011;37512;52.408;13.356;2024-03-22T00:58:06;20.17;;;11.70;;
45762;SDS011;37512;52.408;13.356;2024-03-22T01:02:06;22.35;;;12.75;;
45762;SDS011;37512;52.408;13.356;2024-03-22T01:06:08;19.95;;;12.40;;
45762;SDS011;37512;52.408;13.356;2024-03-22T01:10:10;21.48;;;12.00;;
45762;SDS011;37512;52.408;13.356;2024-03-22T01:14:11;21.33;;;12.63;;
45762;SDS011;37512;52.408;13.356;2024-03-22T01:18:12;18.42;;;11.82;;
45762;SDS011;37512;52.408;13.356;2024-03-22T01:22:12;20.02;;;11.35;;
45762;SDS011;37512;52.408;13.356;2024-03-22T01:26:17;20.27;;;11.90;;
45762;SDS011;37512;52.408;13.356;2024-03-22T01:30:18;25.23;;;13.18;;
45762;SDS011;37512;52.408;13.356;2024-03-22T01:34:18;24.10;;;13.52;;
45762;SDS011;37512;52.408;13.356;2024-03-22T01:38:19;23.05;;;13.77;;
45762;SDS011;37512;52.408;13.356;2024-03-22T01:42:20;23.27;;;12.82;;
45762;SDS011;37512;52.408;13.356;2024-03-22T01:46:20;22.25;;;12.10;;
45762;SDS011;37512;52.408;13.356;2024-03-22T01:50:21;22.60;;;13.32;;
45762;SDS011;37512;52.408;13.356;2024-03-22T01:54:22;20.70;;;13.15;;
45762;SDS011;37512;52.408;13.356;2024-03-22T01:58:22;24.75;;;13.00;;
45762;SDS011;37512;52.408;13.356;2024-03-22T02:02:23;23.77;;;13.48;;
45762;SDS011;37512;52.408;13.356;2024-03-22T02:06:24;21.52;;;12.95;;
45762;SDS011;37512;52.408;13.356;2024-03-22T02:10:24;25.00;;;12.73;;
45762;SDS011;37512;52.408;13.356;2024-03-22T02:14:25;23.13;;;12.93;;
45762;SDS011;37512;52.408;13.356;2024-03-22T02:18:25;25.05;;;13.13;;
45762;SDS011;37512;52.408;13.356;2024-03-22T02:22:26;25.38;;;12.63;;
45762;SDS011;37512;52.408;13.356;2024-03-22T02:26:27;25.05;;;12.60;;
45762;SDS011;37512;52.408;13.356;2024-03-22T02:30:28;25.08;;;12.88;;
45762;SDS011;37512;52.408;13.356;2024-03-22T02:34:28;21.33;;;12.73;;
45762;SDS011;37512;52.408;13.356;2024-03-22T02:38:29;21.80;;;12.18;;
45762;SDS011;37512;52.408;13.356;2024-03-22T02:42:30;22.83;;;12.20;;
45762;SDS011;37512;52.408;13.356;2024-03-22T02:46:30;23.17;;;12.68;;
45762;SDS011;37512;52.408;13.356;2024-03-22T02:50:34;24.40;;;13.15;;
45762;SDS011;37512;52.408;13.356;2024-03-22T02:54:38;21.55;;;11.40;;
45762;SDS011;37512;52.408;13.356;2024-03-22T02:58:39;26.98;;;14.02;;
45762;SDS011;37512;52.408;13.356;2024-03-22T03:02:40;20.63;;;12.10;;
45762;SDS011;37512;52.408;13.356;2024-03-22T03:06:40;23.50;;;11.65;;
45762;SDS011;37512;52.408;13.356;2024-03-22T03:10:41;20.40;;;11.50;;
45762;SDS011;37512;52.408;13.356;2024-03-22T03:14:41;20.70;;;11.27;;
45762;SDS011;37512;52.408;13.356;2024-03-22T03:18:42;24.25;;;12.40;;
45762;SDS011;37512;52.408;13.356;2024-03-22T03:22:42;19.05;;;10.68;;
45762;SDS011;37512;52.408;13.356;2024-03-22T03:26:43;27.10;;;12.40;;
45762;SDS011;37512;52.408;13.356;2024-03-22T03:30:44;22.98;;;11.30;;
45762;SDS011;37512;52.408;13.356;2024-03-22T03:34:45;21.30;;;11.60;;
45762;SDS011;37512;52.408;13.356;2024-03-22T03:38:45;22.08;;;11.23;;
45762;SDS011;37512;52.408;13.356;2024-03-22T03:42:46;20.83;;;10.23;;
45762;SDS011;37512;52.408;13.356;2024-03-22T03:46:46;21.20;;;11.32;;
45762;SDS011;37512;52.408;13.356;2024-03-22T03:50:53;21.40;;;11.80;;
45762;SDS011;37512;52.408;13.356;2024-03-22T03:54:55;19.80;;;10.43;;
45762;SDS011;37512;52.408;13.356;2024-03-22T03:58:55;20.35;;;11.43;;
45762;SDS011;37512;52.408;13.356;2024-03-22T04:02:56;20.83;;;11.25;;
45762;SDS011;37512;52.408;13.356;2024-03-22T04:06:56;21.08;;;10.95;;
45762;SDS011;37512;52.408;13.356;2024-03-22T04:10:57;22.60;;;12.07;;
45762;SDS011;37512;52.408;13.356;2024-03-22T04:14:58;19.83;;;10.65;;
45762;SDS011;37512;52.408;13.356;2024-03-22T04:18:58;20.63;;;10.23;;
45762;SDS011;37512;52.408;13.356;2024-03-22T04:22:59;20.38;;;10.45;;
45762;SDS011;37512;52.408;13.356;2024-03-22T04:27:00;17.13;;;10.02;;
45762;SDS011;37512;52.408;13.356;2024-03-22T04:31:01;19.13;;;11.25;;
45762;SDS011;37512;52.408;13.356;2024-03-22T04:35:04;19.88;;;11.05;;
45762;SDS011;37512;52.408;13.356;2024-03-22T04:39:05;23.30;;;11.15;;
45762;SDS011;37512;52.408;13.356;2024-03-22T04:43:05;23.95;;;10.90;;
45762;SDS011;37512;52.408;13.356;2024-03-22T04:47:06;21.88;;;9.73;;
45762;SDS011;37512;52.408;13.356;2024-03-22T04:51:06;20.75;;;11.05;;
45762;SDS011;37512;52.408;13.356;2024-03-22T04:55:07;26.27;;;12.77;;
45762;SDS011;37512;52.408;13.356;2024-03-22T04:59:08;19.88;;;10.98;;
45762;SDS011;37512;52.408;13.356;2024-03-22T05:03:08;22.45;;;12.13;;
45762;SDS011;37512;52.408;13.356;2024-03-22T05:07:09;25.50;;;12.20;;
45762;SDS011;37512;52.408;13.356;2024-03-22T05:11:10;24.33;;;11.90;;
45762;SDS011;37512;52.408;13.356;2024-03-22T05:15:10;20.38;;;11.98;;
45762;SDS011;37512;52.408;13.356;2024-03-22T05:19:11;19.17;;;10.95;;
45762;SDS011;37512;52.408;13.356;2024-03-22T05:23:12;19.55;;;10.85;;
45762;SDS011;37512;52.408;13.356;2024-03-22T05:27:12;20.70;;;11.32;;
45762;SDS011;37512;52.408;13.356;2024-03-22T05:31:13;21.05;;;11.15;;
45762;SDS011;37512;52.408;13.356;2024-03-22T05:35:14;22.20;;;12.20;;
45762;SDS011;37512;52.408;13.356;2024-03-22T05:39:14;16.02;;;8.75;;
45762;SDS011;37512;52.408;13.356;2024-03-22T05:43:15;21.20;;;10.32;;
45762;SDS011;37512;52.408;13.356;2024-03-22T05:47:15;21.55;;;11.18;;
45762;SDS011;37512;52.408;13.356;2024-03-22T05:51:16;20.60;;;12.23;;
45762;SDS011;37512;52.408;13.356;2024-03-22T05:55:17;27.85;;;12.10;;
45762;SDS011;37512;52.408;13.356;2024-03-22T05:59:18;22.55;;;10.77;;
45762;SDS011;37512;52.408;13.356;2024-03-22T06:03:18;16.05;;;8.23;;
45762;SDS011;37512;52.408;13.356;2024-03-22T06:07:19;21.70;;;10.80;;
45762;SDS011;37512;52.408;13.356;2024-03-22T06:11:20;18.23;;;9.85;;
45762;SDS011;37512;52.408;13.356;2024-03-22T06:15:23;20.08;;;10.95;;
45762;SDS011;37512;52.408;13.356;2024-03-22T06:19:24;17.92;;;10.07;;
45762;SDS011;37512;52.408;13.356;2024-03-22T06:23:25;18.25;;;6.70;;
45762;SDS011;37512;52.408;13.356;2024-03-22T06:27:25;20.27;;;11.07;;
45762;SDS011;37512;52.408;13.356;2024-03-22T06:31:26;14.45;;;7.25;;
45762;SDS011;37512;52.408;13.356;2024-03-22T06:35:28;20.58;;;9.85;;
45762;SDS011;37512;52.408;13.356;2024-03-22T06:39:29;21.90;;;11.75;;
45762;SDS011;37512;52.408;13.356;2024-03-22T06:43:29;19.85;;;11.10;;
45762;SDS011;37512;52.408;13.356;2024-03-22T06:47:30;18.92;;;10.40;;
45762;SDS011;37512;52.408;13.356;2024-03-22T06:51:30;28.60;;;11.88;;
45762;SDS011;37512;52.408;13.356;2024-03-22T06:55:31;19.90;;;10.57;;
45762;SDS011;37512;52.408;13.356;2024-03-22T06:59:32;23.67;;;12.05;;
45762;SDS011;37512;52.408;13.356;2024-03-22T07:03:32;16.45;;;9.23;;
45762;SDS011;37512;52.408;13.356;2024-03-22T07:07:33;23.17;;;11.68;;
45762;SDS011;37512;52.408;13.356;2024-03-22T07:11:35;22.98;;;13.50;;
45762;SDS011;37512;52.408;13.356;2024-03-22T07:15:35;25.40;;;12.48;;
45762;SDS011;37512;52.408;13.356;2024-03-22T07:19:36;23.52;;;13.32;;
45762;SDS011;37512;52.408;13.356;2024-03-22T07:23:37;17.27;;;8.75;;
45762;SDS011;37512;52.408;13.356;2024-03-22T07:27:38;22.75;;;13.32;;
45762;SDS011;37512;52.408;13.356;2024-03-22T07:31:38;22.38;;;11.95;;
45762;SDS011;37512;52.408;13.356;2024-03-22T07:35:39;20.55;;;12.05;;
45762;SDS011;37512;52.408;13.356;2024-03-22T07:39:40;26.80;;;14.25;;
45762;SDS011;37512;52.408;13.356;2024-03-22T07:43:40;25.42;;;13.70;;
45762;SDS011;37512;52.408;13.356;2024-03-22T07:47:41;21.95;;;13.57;;
45762;SDS011;37512;52.408;13.356;2024-03-22T07:51:43;26.38;;;14.02;;
45762;SDS011;37512;52.408;13.356;2024-03-22T07:55:44;22.00;;;12.82;;
45762;SDS011;37512;52.408;13.356;2024-03-22T07:59:44;22.58;;;13.20;;
45762;SDS011;37512;52.408;13.356;2024-03-22T08:03:45;25.27;;;13.30;;
45762;SDS011;37512;52.408;13.356;2024-03-22T08:07:46;23.50;;;12.45;;
45762;SDS011;37512;52.408;13.356;2024-03-22T08:11:46;24.15;;;13.93;;
45762;SDS011;37512;52.408;13.356;2024-03-22T08:15:48;24.48;;;14.73;;
45762;SDS011;37512;52.408;13.356;2024-03-22T08:19:48;25.95;;;13.95;;
45762;SDS011;37512;52.408;13.356;2024-03-22T08:23:49;27.50;;;12.73;;
45762;SDS011;37512;52.408;13.356;2024-03-22T08:27:50;20.00;;;11.27;;
45762;SDS011;37512;52.408;13.356;2024-03-22T08:31:55;25.77;;;14.80;;
45762;SDS011;37512;52.408;13.356;2024-03-22T08:35:56;22.38;;;13.40;;
45762;SDS011;37512;52.408;13.356;2024-03-22T08:39:56;23.27;;;14.05;;
45762;SDS011;37512;52.408;13.356;2024-03-22T08:43:57;24.92;;;12.05;;
45762;SDS011;37512;52.408;13.356;2024-03-22T08:47:57;24.00;;;13.50;;
45762;SDS011;37512;52.408;13.356;2024-03-22T08:51:58;21.70;;;12.63;;
45762;SDS011;37512;52.408;13.356;2024-03-22T08:55:59;24.33;;;12.88;;
45762;SDS011;37512;52.408;13.356;2024-03-22T08:59:59;25.67;;;13.60;;
45762;SDS011;37512;52.408;13.356;2024-03-22T09:04:00;21.67;;;12.02;;
45762;SDS011;37512;52.408;13.356;2024-03-22T09:08:00;13.45;;;6.05;;
45762;SDS011;37512;52.408;13.356;2024-03-22T09:12:03;24.85;;;12.48;;
45762;SDS011;37512;52.408;13.356;2024-03-22T09:16:04;19.73;;;10.48;;
45762;SDS011;37512;52.408;13.356;2024-03-22T09:20:05;22.98;;;12.95;;
45762;SDS011;37512;52.408;13.356;2024-03-22T09:24:07;15.88;;;9.32;;
45762;SDS011;37512;52.408;13.356;2024-03-22T09:28:08;24.95;;;13.50;;
45762;SDS011;37512;52.408;13.356;2024-03-22T09:32:09;20.92;;;12.05;;
45762;SDS011;37512;52.408;13.356;2024-03-22T09:36:10;20.15;;;11.95;;
45762;SDS011;37512;52.408;13.356;2024-03-22T09:40:10;21.60;;;12.05;;
45762;SDS011;37512;52.408;13.356;2024-03-22T09:44:15;18.83;;;11.20;;
45762;SDS011;37512;52.408;13.356;2024-03-22T09:48:20;21.45;;;10.48;;
45762;SDS011;37512;52.408;13.356;2024-03-22T09:52:20;20.88;;;12.80;;
45762;SDS011;37512;52.408;13.356;2024-03-22T09:56:22;20.38;;;12.27;;
45762;SDS011;37512;52.408;13.356;2024-03-22T10:00:25;21.08;;;11.95;;
45762;SDS011;37512;52.408;13.356;2024-03-22T10:04:28;15.40;;;9.98;;
45762;SDS011;37512;52.408;13.356;2024-03-22T10:08:33;20.05;;;12.32;;
45762;SDS011;37512;52.408;13.356;2024-03-22T10:12:34;19.50;;;11.98;;
45762;SDS011;37512;52.408;13.356;2024-03-22T10:16:34;18.83;;;10.30;;
45762;SDS011;37512;52.408;13.356;2024-03-22T10:20:35;17.48;;;9.00;;
45762;SDS011;37512;52.408;13.356;2024-03-22T10:24:36;20.75;;;11.25;;
45762;SDS011;37512;52.408;13.356;2024-03-22T10:28:36;18.48;;;11.75;;
45762;SDS011;37512;52.408;13.356;2024-03-22T10:32:44;18.90;;;11.55;;
45762;SDS011;37512;52.408;13.356;2024-03-22T10:36:45;19.85;;;11.52;;
45762;SDS011;37512;52.408;13.356;2024-03-22T10:40:49;18.08;;;11.77;;
45762;SDS011;37512;52.408;13.356;2024-03-22T10:44:50;17.48;;;9.02;;
45762;SDS011;37512;52.408;13.356;2024-03-22T10:48:51;16.80;;;9.52;;
45762;SDS011;37512;52.408;13.356;2024-03-22T10:52:58;21.55;;;11.32;;
45762;SDS011;37512;52.408;13.356;2024-03-22T10:57:02;19.02;;;10.77;;
45762;SDS011;37512;52.408;13.356;2024-03-22T11:01:05;18.15;;;10.23;;
45762;SDS011;37512;52.408;13.356;2024-03-22T11:05:06;22.33;;;10.88;;
45762;SDS011;37512;52.408;13.356;2024-03-22T11:09:07;16.00;;;9.00;;
45762;SDS011;37512;52.408;13.356;2024-03-22T11:13:08;16.52;;;9.45;;
45762;SDS011;37512;52.408;13.356;2024-03-22T11:17:09;19.40;;;10.98;;
45762;SDS011;37512;52.408;13.356;2024-03-22T11:21:11;18.67;;;10.00;;
45762;SDS011;37512;52.408;13.356;2024-03-22T11:25:13;24.02;;;12.80;;
45762;SDS011;37512;52.408;13.356;2024-03-22T11:29:14;19.52;;;11.35;;
45762;SDS011;37512;52.408;13.356;2024-03-22T11:33:14;17.33;;;10.80;;
45762;SDS011;37512;52.408;13.356;2024-03-22T11:37:15;18.42;;;11.60;;
45762;SDS011;37512;52.408;13.356;2024-03-22T11:41:17;19.42;;;11.20;;
45762;SDS011;37512;52.408;13.356;2024-03-22T11:45:20;17.88;;;10.77;;
45762;SDS011;37512;52.408;13.356;2024-03-22T11:49:22;22.17;;;12.27;;
45762;SDS011;37512;52.408;13.356;2024-03-22T11:53:22;22.80;;;11.65;;
45762;SDS011;37512;52.408;13.356;2024-03-22T11:57:23;22.55;;;10.30;;
45762;SDS011;37512;52.408;13.356;2024-03-22T12:01:24;21.25;;;11.60;;
45762;SDS011;37512;52.408;13.356;2024-03-22T12:05:25;20.92;;;12.68;;
45762;SDS011;37512;52.408;13.356;2024-03-22T12:09:26;17.52;;;9.98;;
45762;SDS011;37512;52.408;13.356;2024-03-22T12:13:27;25.95;;;13.45;;
45762;SDS011;37512;52.408;13.356;2024-03-22T12:17:27;14.38;;;9.20;;
45762;SDS011;37512;52.408;13.356;2024-03-22T12:21:28;19.45;;;11.88;;
45762;SDS011;37512;52.408;13.356;2024-03-22T12:25:29;23.85;;;13.90;;
45762;SDS011;37512;52.408;13.356;2024-03-22T12:29:33;24.35;;;13.68;;
45762;SDS011;37512;52.408;13.356;2024-03-22T12:33:34;25.80;;;13.57;;
45762;SDS011;37512;52.408;13.356;2024-03-22T12:37:35;30.40;;;15.57;;
45762;SDS011;37512;52.408;13.356;2024-03-22T12:41:36;25.67;;;15.30;;
45762;SDS011;37512;52.408;13.356;2024-03-22T12:45:37;29.88;;;15.82;;
45762;SDS011;37512;52.408;13.356;2024-03-22T12:49:37;26.13;;;14.10;;
45762;SDS011;37512;52.408;13.356;2024-03-22T12:53:38;28.58;;;15.00;;
45762;SDS011;37512;52.408;13.356;2024-03-22T12:57:39;30.40;;;15.50;;
45762;SDS011;37512;52.408;13.356;2024-03-22T13:01:39;28.80;;;15.32;;
45762;SDS011;37512;52.408;13.356;2024-03-22T13:05:40;31.88;;;15.48;;
45762;SDS011;37512;52.408;13.356;2024-03-22T13:09:40;34.55;;;17.20;;
45762;SDS011;37512;52.408;13.356;2024-03-22T13:13:41;32.05;;;16.33;;
45762;SDS011;37512;52.408;13.356;2024-03-22T13:17:42;35.53;;;15.98;;
45762;SDS011;37512;52.408;13.356;2024-03-22T13:21:43;35.42;;;17.83;;
45762;SDS011;37512;52.408;13.356;2024-03-22T13:25:48;36.17;;;18.23;;
45762;SDS011;37512;52.408;13.356;2024-03-22T13:29:48;33.25;;;16.55;;
45762;SDS011;37512;52.408;13.356;2024-03-22T13:33:49;32.90;;;16.75;;
45762;SDS011;37512;52.408;13.356;2024-03-22T13:37:49;31.23;;;15.07;;
45762;SDS011;37512;52.408;13.356;2024-03-22T13:41:50;28.90;;;14.57;;
45762;SDS011;37512;52.408;13.356;2024-03-22T13:45:51;29.23;;;13.43;;
45762;SDS011;37512;52.408;13.356;2024-03-22T13:49:55;22.00;;;12.50;;
45762;SDS011;37512;52.408;13.356;2024-03-22T13:53:56;21.75;;;11.93;;
45762;SDS011;37512;52.408;13.356;2024-03-22T13:57:56;23.58;;;11.15;;
45762;SDS011;37512;52.408;13.356;2024-03-22T14:01:57;24.95;;;11.73;;
45762;SDS011;37512;52.408;13.356;2024-03-22T14:05:58;28.65;;;14.32;;
45762;SDS011;37512;52.408;13.356;2024-03-22T14:09:58;24.70;;;13.88;;
45762;SDS011;37512;52.408;13.356;2024-03-22T14:13:59;31.20;;;14.43;;
45762;SDS011;37512;52.408;13.356;2024-03-22T14:18:00;23.35;;;10.50;;
45762;SDS011;37512;52.408;13.356;2024-03-22T14:22:01;37.63;;;17.02;;
45762;SDS011;37512;52.408;13.356;2024-03-22T14:26:01;23.95;;;13.13;;
45762;SDS011;37512;52.408;13.356;2024-03-22T14:30:03;24.95;;;13.35;;
45762;SDS011;37512;52.408;13.356;2024-03-22T14:34:06;30.77;;;13.23;;
45762;SDS011;37512;52.408;13.356;2024-03-22T14:38:07;31.73;;;16.00;;
45762;SDS011;37512;52.408;13.356;2024-03-22T14:42:07;22.55;;;13.30;;
45762;SDS011;37512;52.408;13.356;2024-03-22T14:46:08;35.58;;;16.55;;
45762;SDS011;37512;52.408;13.356;2024-03-22T14:50:09;27.40;;;15.32;;
45762;SDS011;37512;52.408;13.356;2024-03-22T14:54:09;30.92;;;15.90;;
45762;SDS011;37512;52.408;13.356;2024-03-22T14:58:10;27.88;;;15.00;;
45762;SDS011;37512;52.408;13.356;2024-03-22T15:02:11;22.05;;;9.95;;
45762;SDS011;37512;52.408;13.356;2024-03-22T15:06:11;21.98;;;12.48;;
45762;SDS011;37512;52.408;13.356;2024-03-22T15:10:12;32.55;;;16.20;;
45762;SDS011;37512;52.408;13.356;2024-03-22T15:14:13;32.28;;;16.63;;
45762;SDS011;37512;52.408;13.356;2024-03-22T15:18:13;34.75;;;16.40;;
45762;SDS011;37512;52.408;13.356;2024-03-22T15:22:15;37.03;;;17.23;;
45762;SDS011;37512;52.408;13.356;2024-03-22T15:26:18;34.38;;;16.83;;
45762;SDS011;37512;52.408;13.356;2024-03-22T15:30:21;33.92;;;15.57;;
45762;SDS011;37512;52.408;13.356;2024-03-22T15:34:22;29.73;;;14.40;;
45762;SDS011;37512;52.408;13.356;2024-03-22T15:38:23;25.23;;;13.55;;
45762;SDS011;37512;52.408;13.356;2024-03-22T15:42:23;26.48;;;14.40;;
45762;SDS011;37512;52.408;13.356;2024-03-22T15:46:24;28.75;;;14.48;;
45762;SDS011;37512;52.408;13.356;2024-03-22T15:50:25;24.50;;;12.95;;
45762;SDS011;37512;52.408;13.356;2024-03-22T15:54:25;20.20;;;11.35;;
45762;SDS011;37512;52.408;13.356;2024-03-22T15:58:26;34.30;;;15.02;;
45762;SDS011;37512;52.408;13.356;2024-03-22T16:02:26;30.13;;;14.75;;
45762;SDS011;37512;52.408;13.356;2024-03-22T16:06:28;33.10;;;15.40;;
45762;SDS011;37512;52.408;13.356;2024-03-22T16:10:30;31.90;;;16.25;;
45762;SDS011;37512;52.408;13.356;2024-03-22T16:14:31;27.60;;;14.95;;
45762;SDS011;37512;52.408;13.356;2024-03-22T16:18:32;30.10;;;14.65;;
45762;SDS011;37512;52.408;13.356;2024-03-22T16:22:33;22.25;;;11.00;;
45762;SDS011;37512;52.408;13.356;2024-03-22T16:26:35;36.15;;;16.00;;
45762;SDS011;37512;52.408;13.356;2024-03-22T16:30:36;32.85;;;16.40;;
45762;SDS011;37512;52.408;13.356;2024-03-22T16:34:36;31.52;;;15.52;;
45762;SDS011;37512;52.408;13.356;2024-03-22T16:38:37;32.17;;;16.08;;
45762;SDS011;37512;52.408;13.356;2024-03-22T16:42:47;38.30;;;18.10;;
45762;SDS011;37512;52.408;13.356;2024-03-22T16:46:49;32.17;;;16.40;;
45762;SDS011;37512;52.408;13.356;2024-03-22T16:50:50;24.60;;;12.98;;
45762;SDS011;37512;52.408;13.356;2024-03-22T16:54:50;32.42;;;16.40;;
45762;SDS011;37512;52.408;13.356;2024-03-22T16:58:51;31.55;;;16.80;;
45762;SDS011;37512;52.408;13.356;2024-03-22T17:02:52;27.20;;;14.00;;
45762;SDS011;37512;52.408;13.356;2024-03-22T17:06:52;32.15;;;16.35;;
45762;SDS011;37512;52.408;13.356;2024-03-22T17:10:53;34.03;;;17.15;;
45762;SDS011;37512;52.408;13.356;2024-03-22T17:14:56;32.25;;;17.23;;
45762;SDS011;37512;52.408;13.356;2024-03-22T17:18:57;41.20;;;17.40;;
45762;SDS011;37512;52.408;13.356;2024-03-22T17:22:57;29.15;;;15.02;;
45762;SDS011;37512;52.408;13.356;2024-03-22T17:26:58;28.25;;;15.35;;
45762;SDS011;37512;52.408;13.356;2024-03-22T17:30:59;36.17;;;18.08;;
45762;SDS011;37512;52.408;13.356;2024-03-22T17:35:00;33.90;;;16.98;;
45762;SDS011;37512;52.408;13.356;2024-03-22T17:39:01;28.48;;;15.35;;
45762;SDS011;37512;52.408;13.356;2024-03-22T17:43:01;43.72;;;19.45;;
45762;SDS011;37512;52.408;13.356;2024-03-22T17:47:02;32.28;;;16.15;;
45762;SDS011;37512;52.408;13.356;2024-03-22T17:51:03;38.17;;;19.60;;
45762;SDS011;37512;52.408;13.356;2024-03-22T17:55:04;37.80;;;19.30;;
45762;SDS011;37512;52.408;13.356;2024-03-22T17:59:05;43.20;;;20.95;;
45762;SDS011;37512;52.408;13.356;2024-03-22T18:03:06;36.72;;;19.42;;
45762;SDS011;37512;52.408;13.356;2024-03-22T18:07:07;42.63;;;19.58;;
45762;SDS011;37512;52.408;13.356;2024-03-22T18:11:07;41.70;;;20.55;;
45762;SDS011;37512;52.408;13.356;2024-03-22T18:15:11;46.65;;;22.13;;
45762;SDS011;37512;52.408;13.356;2024-03-22T18:19:12;39.78;;;19.23;;
45762;SDS011;37512;52.408;13.356;2024-03-22T18:23:13;45.92;;;23.15;;
45762;SDS011;37512;52.408;13.356;2024-03-22T18:27:17;49.55;;;23.20;;
45762;SDS011;37512;52.408;13.356;2024-03-22T18:31:17;47.03;;;22.98;;
45762;SDS011;37512;52.408;13.356;2024-03-22T18:35:20;43.75;;;21.05;;
45762;SDS011;37512;52.408;13.356;2024-03-22T18:39:20;51.35;;;23.75;;
45762;SDS011;37512;52.408;13.356;2024-03-22T18:43:21;51.42;;;25.30;;
45762;SDS011;37512;52.408;13.356;2024-03-22T18:47:22;55.03;;;25.52;;
45762;SDS011;37512;52.408;13.356;2024-03-22T18:51:22;55.92;;;27.52;;
45762;SDS011;37512;52.408;13.356;2024-03-22T18:55:23;53.58;;;27.00;;
45762;SDS011;37512;52.408;13.356;2024-03-22T18:59:23;36.42;;;17.80;;
45762;SDS011;37512;52.408;13.356;2024-03-22T19:03:25;59.90;;;29.15;;
45762;SDS011;37512;52.408;13.356;2024-03-22T19:07:25;50.05;;;24.17;;
45762;SDS011;37512;52.408;13.356;2024-03-22T19:11:26;38.05;;;17.08;;
45762;SDS011;37512;52.408;13.356;2024-03-22T19:15:27;50.53;;;25.67;;
45762;SDS011;37512;52.408;13.356;2024-03-22T19:19:28;54.90;;;27.80;;
45762;SDS011;37512;52.408;13.356;2024-03-22T19:23:28;55.05;;;27.48;;
45762;SDS011;37512;52.408;13.356;2024-03-22T19:27:29;54.05;;;29.33;;
45762;SDS011;37512;52.408;13.356;2024-03-22T19:31:30;59.70;;;30.13;;
45762;SDS011;37512;52.408;13.356;2024-03-22T19:35:31;59.67;;;28.42;;
45762;SDS011;37512;52.408;13.356;2024-03-22T19:39:32;52.35;;;27.02;;
45762;SDS011;37512;52.408;13.356;2024-03-22T19:43:33;59.85;;;30.17;;
45762;SDS011;37512;52.408;13.356;2024-03-22T19:47:34;56.22;;;29.55;;
45762;SDS011;37512;52.408;13.356;2024-03-22T19:51:35;55.83;;;30.73;;
45762;SDS011;37512;52.408;13.356;2024-03-22T19:55:36;60.13;;;30.85;;
45762;SDS011;37512;52.408;13.356;2024-03-22T19:59:36;57.40;;;31.98;;
45762;SDS011;37512;52.408;13.356;2024-03-22T20:03:37;59.80;;;30.48;;
45762;SDS011;37512;52.408;13.356;2024-03-22T20:07:37;58.33;;;30.02;;
45762;SDS011;37512;52.408;13.356;2024-03-22T20:11:38;55.90;;;27.80;;
45762;SDS011;37512;52.408;13.356;2024-03-22T20:15:39;46.00;;;26.20;;
45762;SDS011;37512;52.408;13.356;2024-03-22T20:19:41;48.90;;;27.52;;
45762;SDS011;37512;52.408;13.356;2024-03-22T20:23:41;51.00;;;28.75;;
45762;SDS011;37512;52.408;13.356;2024-03-22T20:27:42;57.20;;;31.20;;
45762;SDS011;37512;52.408;13.356;2024-03-22T20:31:43;49.30;;;26.15;;
45762;SDS011;37512;52.408;13.356;2024-03-22T20:35:43;58.03;;;30.77;;
